»·PEaware :: N73262 KTOA-KSMO

N73262 :: KTOA-KSMO

FLIGHT INFORMATION

Flight Status: Arrived
Operator: Privately registered:
United States
More flights under this callsign
Pilot: Shoichiro A. (20956)
Aircraft: CESSNA 172 SKYHAWK
(C172)
More flights by this aircraft type
Origin: KTOA Zamperini
United States
Destination: KSMO Santa Monica Mun
United States
More flights between these airports :: More routes between these airports
Route: LIMBO V64 SMO125 SMO SMO059 ELMOO
File this flight plan on PilotEdge
Remarks:
Altitude:
(Current/Filed)
0ft
Speed:
(Current/Filed)
0kts
Departed: 09-May-19 10:19 PM
Arrived: 09-May-19 11:04 PM
Distance/Time
Traveled:
14nm/0:45
Distance/Time
To Go:
Arrived

Flight Plot

Page will automatically refresh every two minutes.


Map Options




Map Legend


Flown Route
Filed Route
Departure Airport
Arrival Airport
Navaid (VOR, NDB)
Fix

Horizontal Profiles

Position Reports

Time Latitude Longitude Heading Altitude Ground
Speed
09-May-19 22:09 33.798970 -118.333401 42 101ft 0kts
09-May-19 22:10 33.798970 -118.333401 42 101ft 0kts
09-May-19 22:11 33.798970 -118.333401 42 101ft 0kts
09-May-19 22:12 33.798970 -118.333401 42 101ft 0kts
09-May-19 22:13 33.798970 -118.333401 42 101ft 0kts
09-May-19 22:14 33.798970 -118.333401 42 101ft 0kts
09-May-19 22:15 33.798970 -118.333401 42 101ft 0kts
09-May-19 22:16 33.798970 -118.333401 42 101ft 0kts
09-May-19 22:17 33.799847 -118.333266 307 99ft 17kts
09-May-19 22:18 33.809397 -118.348097 301 365ft 79kts
09-May-19 22:19 33.823282 -118.370097 304 1000ft 83kts
09-May-19 22:20 33.837235 -118.392724 306 1610ft 85kts
09-May-19 22:21 33.851967 -118.415132 307 2196ft 86kts
09-May-19 22:22 33.858852 -118.438760 208 2751ft 89kts
09-May-19 22:23 33.835213 -118.444130 189 3347ft 87kts
09-May-19 22:24 33.811092 -118.447828 183 3892ft 88kts
09-May-19 22:25 33.785723 -118.450868 183 4072ft 92kts
09-May-19 22:26 33.767392 -118.436318 90 4139ft 101kts
09-May-19 22:27 33.768455 -118.401581 90 4145ft 106kts
09-May-19 22:28 33.767816 -118.365016 93 4036ft 109kts
09-May-19 22:29 33.769424 -118.328676 87 3976ft 108kts
09-May-19 22:30 33.772440 -118.292396 83 3910ft 109kts
09-May-19 22:31 33.774297 -118.256811 89 3942ft 105kts
09-May-19 22:32 33.782871 -118.227276 359 4013ft 101kts
09-May-19 22:33 33.806535 -118.244688 319 4050ft 100kts
09-May-19 22:34 33.827777 -118.266151 312 4095ft 100kts
09-May-19 22:35 33.846857 -118.290712 323 4097ft 100kts
09-May-19 22:36 33.868412 -118.311735 310 4154ft 100kts
09-May-19 22:38 33.890832 -118.335226 318 4141ft 108kts
09-May-19 22:39 33.914558 -118.358446 321 4100ft 111kts
09-May-19 22:40 33.937406 -118.382988 320 4061ft 113kts
09-May-19 22:41 33.961632 -118.406437 313 4058ft 111kts
09-May-19 22:42 33.984948 -118.430905 318 4047ft 112kts
09-May-19 22:43 34.009473 -118.454142 318 4059ft 112kts
09-May-19 22:44 34.026427 -118.439230 117 3925ft 111kts
09-May-19 22:45 34.017540 -118.407735 62 3929ft 114kts
09-May-19 22:46 34.028714 -118.373675 65 3950ft 113kts
09-May-19 22:47 34.035189 -118.338564 86 3961ft 112kts
09-May-19 22:48 34.043699 -118.302785 68 3976ft 113kts
09-May-19 22:49 34.052938 -118.267065 79 3990ft 110kts
09-May-19 22:50 34.060498 -118.230786 79 4016ft 109kts
09-May-19 22:51 34.076706 -118.202212 23 4008ft 112kts
09-May-19 22:52 34.105224 -118.186925 27 4033ft 113kts
09-May-19 22:53 34.135370 -118.176934 332 3921ft 118kts
09-May-19 22:54 34.142945 -118.212042 265 3874ft 109kts
09-May-19 22:55 34.148693 -118.247447 291 3970ft 109kts
09-May-19 22:56 34.147393 -118.280485 217 3937ft 102kts
09-May-19 22:57 34.127092 -118.306387 225 3628ft 109kts
09-May-19 22:58 34.105668 -118.332874 216 3091ft 109kts
09-May-19 22:58 34.088267 -118.355423 220 2583ft 106kts
09-May-19 23:00 34.064441 -118.386440 226 1669ft 110kts
09-May-19 23:01 34.044946 -118.413156 233 1481ft 105kts
09-May-19 23:02 34.032272 -118.432443 222 891ft 60kts
09-May-19 23:03 34.020234 -118.446116 223 191ft 55kts
09-May-19 23:04 34.014151 -118.452226 132 133ft 1kts

Navigation Log

Ident Type
Flight plan parsing failed, navigation log unavailable